Terminal Aerodrome Forecast
Issued by NWS

Home | Current Version | Previous Version | Text Only | Print | Product List | Glossary On
Versions: 1 2 3 4 5 6 7 8 9 10 11 12 13 14 15 16 17 18 19 20 21
000
FTUS43 KAPX 310900 AAA
TAFAPN
TAF AMD
KAPN 310943Z 3110/0106 00000KT P6SM OVC060
     FM311100 VRB03KT P6SM SCT200
     FM311500 22006KT P6SM SCT060
     FM311800 21007KT P6SM VCSH SCT060 BKN090
     FM312300 14006KT P6SM VCSH SCT060 BKN090
     FM010200 00000KT P6SM SCT070=

USA.gov is the U.S. government's official web portal to all federal, state and local government web resources and services.